Vohburg — V2OW7 — position and weather

sailwx.info

Track history (hours):
 
Tides and Currents Weather Stations Pressure Air Temp Water Temp Dewpoint Dewpoint Depression Visibility Wind Speed Wind Dir Waves Ship Positions

Vohburg

Last reported at 2018-Feb-21 01:30 UTC. Time now 2018-Feb-21 01:47 UTC.
Position N 55°17' E 014°30'.

Length 140 m; draft 6.5 m.

Type: Ship (hazmat cat A). MMSI: 304724424.

Date/timePositionNaut miles runAvg speedWind from/ knotsBaromVisibWave heightAir tempDewpointWater temp
2018-Feb-21 01:30N 55°17' E 014°30'916.8
2018-Feb-21 00:59N 55°11' E 014°20'916.8
2018-Feb-21 00:28N 55°04' E 014°11'6716.6
2018-Feb-20 20:27N 54°35' E 012°26'716.2
2018-Feb-20 20:00N 54°30' E 012°17'816.0
2018-Feb-20 19:30N 54°24' E 012°09'2616.4
2018-Feb-20 17:56N 54°12' E 011°30'715.9
2018-Feb-20 17:31N 54°09' E 011°20'6 0.5
2018-Feb-20 06:08N 54°08' E 011°09'214.4
2018-Feb-20 06:00N 54°10' E 011°11'815.2
2018-Feb-20 05:28N 54°16' E 011°20'715.0
2018-Feb-20 05:01N 54°22' E 011°23'815.1
2018-Feb-20 04:31N 54°30' E 011°21'714.6
2018-Feb-20 04:01N 54°34' E 011°10'815.3
2018-Feb-20 03:31N 54°35' E 010°57'816.2
2018-Feb-20 03:01N 54°34' E 010°43'816.0
2018-Feb-20 02:30N 54°32' E 010°30'815.1
2018-Feb-20 01:59N 54°29' E 010°18'16 5.8
2018-Feb-19 23:14N 54°21' E 009°54'2 8.6
2018-Feb-19 23:00N 54°22' E 009°50'4 8.3
2018-Feb-19 22:30N 54°20' E 009°44'4 7.8
2018-Feb-19 22:00N 54°17' E 009°39'4 8.1
2018-Feb-19 21:30N 54°14' E 009°36'4 8.2
2018-Feb-19 21:00N 54°11' E 009°31'4 8.4
2018-Feb-19 20:30N 54°10' E 009°24'1 2.8
2018-Feb-19 19:59N 54°09' E 009°22'3 5.7
2018-Feb-19 19:30N 54°06' E 009°20'4 8.4
2018-Feb-19 19:01N 54°02' E 009°18'4 7.7
2018-Feb-19 18:31N 53°59' E 009°16'4 8.6
2018-Feb-19 18:01N 53°55' E 009°12'2 4.7
2018-Feb-19 17:28N 53°54' E 009°09'0 0.2
2018-Feb-19 17:00N 53°54' E 009°09'2 4.7
2018-Feb-19 16:30N 53°53' E 009°05'713.8
2018-Feb-19 16:00N 53°50' E 008°54'815.3
2018-Feb-19 15:30N 53°53' E 008°42'816.3
2018-Feb-19 15:00N 53°58' E 008°31'817.0
2018-Feb-19 14:30N 53°59' E 008°16'816.4
2018-Feb-19 14:00N 53°59' E 008°03'13318.6
2018-Feb-19 06:51N 53°12' E 004°33'719.9
2018-Feb-19 06:30N 53°06' E 004°27'1019.9
2018-Feb-19 06:00N 52°57' E 004°19'1019.9
2018-Feb-19 05:29N 52°48' E 004°11'8718.4
2018-Feb-19 00:44N 51°50' E 002°25'816.7
2018-Feb-19 00:15N 51°44' E 002°15'416.2
2018-Feb-19 00:00N 51°42' E 002°10'816.0
2018-Feb-18 23:30N 51°37' E 002°01'816.1
2018-Feb-18 23:00N 51°33' E 001°49'815.8
2018-Feb-18 22:30N 51°30' E 001°37'815.3
2018-Feb-18 22:00N 51°27' E 001°26'714.8
2018-Feb-18 21:30N 51°29' E 001°14'714.8
2018-Feb-18 21:00N 51°30' E 001°02'917.3
2018-Feb-18 20:30N 51°28' E 000°48'5 9.5
2018-Feb-18 19:58N 51°26' E 000°41'0 0.0
2018-Feb-18 19:28N 51°26' E 000°41'0 0.0
2018-Feb-18 12:47N 51°26' E 000°41'0 0.0
2018-Feb-18 12:29N 51°26' E 000°41'0 0.0
2018-Feb-18 11:59N 51°26' E 000°41'0 0.0
2018-Feb-18 11:29N 51°26' E 000°41'0 0.4
2018-Feb-18 11:01N 51°26' E 000°41'510.5
2018-Feb-18 10:30N 51°28' E 000°49'918.4
2018-Feb-18 10:00N 51°30' E 001°04'816.5
2018-Feb-18 09:31N 51°29' E 001°17'815.7
2018-Feb-18 09:00N 51°26' E 001°28'2 4.2
2018-Feb-18 08:30N 51°26' E 001°32'815.2
2018-Feb-18 08:00N 51°33' E 001°39'816.8
2018-Feb-18 07:30N 51°40' E 001°45'917.2
2018-Feb-18 07:00N 51°49' E 001°44'816.4
2018-Feb-18 06:30N 51°57' E 001°45'815.7
2018-Feb-18 06:00N 52°05' E 001°47'2515.4
2018-Feb-18 04:23N 52°29' E 001°54'614.5
2018-Feb-18 04:00N 52°35' E 001°55'713.9
2018-Feb-18 03:31N 52°42' E 001°55'713.5
2018-Feb-18 03:00N 52°47' E 001°49'714.7
2018-Feb-18 02:30N 52°52' E 001°40'714.5
2018-Feb-18 02:00N 52°57' E 001°32'815.2
2018-Feb-18 01:30N 53°04' E 001°25'815.6
2018-Feb-18 01:00N 53°11' E 001°19'815.6
2018-Feb-18 00:30N 53°18' E 001°13'815.6
2018-Feb-18 00:00N 53°24' E 001°07'109 4.9
2018-Feb-17 01:47N 54°42' W 001°04'2 6.2
2018-Feb-17 01:30N 54°43' W 001°01'3 5.6
2018-Feb-17 00:59N 54°44' W 000°56'3 5.5
2018-Feb-17 00:29N 54°45' W 000°52'41111.1
2018-Feb-15 11:30N 57°44' E 010°13'713.5
2018-Feb-15 11:00N 57°46' E 010°25'713.8
2018-Feb-15 10:31N 57°48' E 010°38'815.5
2018-Feb-15 10:01N 57°45' E 010°52'918.1
2018-Feb-15 09:30N 57°39' E 011°05'918.6
2018-Feb-15 09:01N 57°33' E 011°17'917.8
2018-Feb-15 08:31N 57°26' E 011°28'918.7
2018-Feb-15 08:00N 57°17' E 011°34'917.8
2018-Feb-15 07:30N 57°09' E 011°40'917.9
2018-Feb-15 07:01N 57°01' E 011°45'4616.6
2018-Feb-15 04:16N 56°20' E 012°22'416.6
2018-Feb-15 04:01N 56°16' E 012°25'917.6
2018-Feb-15 03:31N 56°08' E 012°32'816.6
2018-Feb-15 03:01N 56°01' E 012°40'816.9
2018-Feb-15 02:31N 55°53' E 012°45'816.4
2018-Feb-15 02:01N 55°45' E 012°42'815.3
2018-Feb-15 01:31N 55°37' E 012°42'611.9
2018-Feb-15 01:00N 55°31' E 012°43'815.9
2018-Feb-15 00:30N 55°24' E 012°40'713.6
2018-Feb-15 00:00N 55°17' E 012°45'816.3
2018-Feb-14 23:30N 55°15' E 012°59'917.4
2018-Feb-14 23:00N 55°15' E 013°14'1117.3
2018-Feb-14 22:21N 55°14' E 013°34'817.3
2018-Feb-14 21:53N 55°14' E 013°48'817.5
2018-Feb-14 21:24N 55°14' E 014°03'717.2
2018-Feb-14 20:58N 55°14' E 014°16'817.1
2018-Feb-14 20:30N 55°19' E 014°26'917.3
2018-Feb-14 20:00N 55°26' E 014°36'917.4
2018-Feb-14 19:30N 55°27' E 014°51'917.8
2018-Feb-14 19:00N 55°28' E 015°07'917.7
2018-Feb-14 18:30N 55°28' E 015°23'917.6
2018-Feb-14 18:00N 55°29' E 015°38'917.6
2018-Feb-14 17:30N 55°29' E 015°54'917.7
2018-Feb-14 16:59N 55°29' E 016°10'325 9.4
2018-Feb-13 06:23N 59°33' E 022°50'615.5
2018-Feb-13 06:00N 59°35' E 023°01'815.5
2018-Feb-13 05:30N 59°37' E 023°16'816.4
2018-Feb-13 05:00N 59°39' E 023°31'816.4
2018-Feb-13 04:30N 59°42' E 023°47'816.5
2018-Feb-13 04:00N 59°44' E 024°03'1019.2
2018-Feb-13 03:30N 59°46' E 024°21'815.6
2018-Feb-13 03:00N 59°48' E 024°36'917.2
2018-Feb-13 02:30N 59°50' E 024°53'816.7
2018-Feb-13 02:00N 59°51' E 025°09'816.7
2018-Feb-13 01:30N 59°53' E 025°26'817.0
2018-Feb-13 01:00N 59°54' E 025°42'1718.8
2018-Feb-13 00:07N 59°59' E 026°14'215.0
2018-Feb-12 23:58N 59°59' E 026°19'814.9
2018-Feb-12 23:27N 60°01' E 026°34'817.1
2018-Feb-12 22:58N 60°00' E 026°50'817.3
2018-Feb-12 22:29N 60°00' E 027°07'715.0
2018-Feb-12 22:00N 60°04' E 027°19'815.2
2018-Feb-12 21:30N 60°08' E 027°32'714.7
2018-Feb-12 21:01N 60°12' E 027°45'714.3
2018-Feb-12 20:30N 60°10' E 027°59'815.2
2018-Feb-12 20:00N 60°08' E 028°14'815.1
2018-Feb-12 19:30N 60°04' E 028°27'815.6
2018-Feb-12 19:00N 60°03' E 028°42'816.0
2018-Feb-12 18:30N 60°03' E 028°58'1016.1
2018-Feb-12 17:54N 60°02' E 029°18'914.9
2018-Feb-12 17:18N 60°01' E 029°35'411.7
2018-Feb-12 17:00N 59°59' E 029°42'1 1.6
2018-Feb-12 16:23N 60°00' E 029°43'0 0.0
2018-Feb-12 05:50N 60°00' E 029°43'0 0.1
2018-Feb-12 05:28N 60°00' E 029°43'0 0.4
2018-Feb-12 04:59N 60°00' E 029°43'2 3.4
2018-Feb-12 04:29N 59°60' E 029°39'911.5
2018-Feb-12 03:44N 60°02' E 029°22'2 9.5
2018-Feb-12 03:30N 60°02' E 029°18'5 9.4
2018-Feb-12 03:00N 60°02' E 029°09'5 9.5
2018-Feb-12 02:28N 60°02' E 028°58'4 9.6
2018-Feb-12 02:00N 60°02' E 028°49'5 9.6
2018-Feb-12 01:30N 60°02' E 028°40'510.5
2018-Feb-12 01:00N 60°03' E 028°29'510.4
2018-Feb-12 00:30N 60°05' E 028°20'510.1
2018-Feb-12 00:01N 60°08' E 028°11'5 9.8
2018-Feb-11 23:30N 60°09' E 028°02'5 9.6
2018-Feb-11 23:00N 60°10' E 027°52'5 9.7
2018-Feb-11 22:30N 60°10' E 027°43'611.6
2018-Feb-11 22:00N 60°07' E 027°33'612.0
2018-Feb-11 21:30N 60°04' E 027°22'612.1
2018-Feb-11 21:00N 60°00' E 027°12'611.7
2018-Feb-11 20:30N 59°58' E 027°02'611.9
2018-Feb-11 20:00N 59°59' E 026°50'611.9
2018-Feb-11 19:30N 59°59' E 026°38'612.3
2018-Feb-11 19:00N 59°58' E 026°26'713.4
2018-Feb-11 18:30N 59°56' E 026°13'1213.6
2018-Feb-11 17:36N 59°53' E 025°50'114.2
2018-Feb-11 17:30N 59°52' E 025°47'713.5
2018-Feb-11 17:00N 59°51' E 025°34'713.2
2018-Feb-11 16:30N 59°49' E 025°21'713.5
2018-Feb-11 16:00N 59°48' E 025°08'713.7
2018-Feb-11 15:31N 59°47' E 024°55'714.2
2018-Feb-11 15:01N 59°45' E 024°41'713.8
2018-Feb-11 14:30N 59°44' E 024°27'714.0
2018-Feb-11 14:00N 59°42' E 024°14'714.2
2018-Feb-11 13:30N 59°39' E 024°01'713.9
2018-Feb-11 13:00N 59°37' E 023°48'714.2
2018-Feb-11 12:30N 59°35' E 023°35'714.3
2018-Feb-11 12:00N 59°33' E 023°21'814.3
2018-Feb-11 11:29N 59°30' E 023°07'  
Track history (hours):
 
Tides and Currents Weather Stations Pressure Air Temp Water Temp Dewpoint Dewpoint Depression Visibility Wind Speed Wind Dir Waves Ship Positions

Vohburg

Last reported at 2018-Feb-21 01:30 UTC. Time now 2018-Feb-21 01:47 UTC.
Position N 55°17' E 014°30'.

Length 140 m; draft 6.5 m.

Type: Ship (hazmat cat A). MMSI: 304724424.

Date/timePositionNaut miles runAvg speedWind from/ knotsBaromVisibWave heightAir tempDewpointWater temp
2018-Feb-21 01:30N 55°17' E 014°30'916.8
2018-Feb-21 00:59N 55°11' E 014°20'916.8
2018-Feb-21 00:28N 55°04' E 014°11'6716.6
2018-Feb-20 20:27N 54°35' E 012°26'716.2
2018-Feb-20 20:00N 54°30' E 012°17'816.0
2018-Feb-20 19:30N 54°24' E 012°09'2616.4
2018-Feb-20 17:56N 54°12' E 011°30'715.9
2018-Feb-20 17:31N 54°09' E 011°20'6 0.5
2018-Feb-20 06:08N 54°08' E 011°09'214.4
2018-Feb-20 06:00N 54°10' E 011°11'815.2
2018-Feb-20 05:28N 54°16' E 011°20'715.0
2018-Feb-20 05:01N 54°22' E 011°23'815.1
2018-Feb-20 04:31N 54°30' E 011°21'714.6
2018-Feb-20 04:01N 54°34' E 011°10'815.3
2018-Feb-20 03:31N 54°35' E 010°57'816.2
2018-Feb-20 03:01N 54°34' E 010°43'816.0
2018-Feb-20 02:30N 54°32' E 010°30'815.1
2018-Feb-20 01:59N 54°29' E 010°18'16 5.8
2018-Feb-19 23:14N 54°21' E 009°54'2 8.6
2018-Feb-19 23:00N 54°22' E 009°50'4 8.3
2018-Feb-19 22:30N 54°20' E 009°44'4 7.8
2018-Feb-19 22:00N 54°17' E 009°39'4 8.1
2018-Feb-19 21:30N 54°14' E 009°36'4 8.2
2018-Feb-19 21:00N 54°11' E 009°31'4 8.4
2018-Feb-19 20:30N 54°10' E 009°24'1 2.8
2018-Feb-19 19:59N 54°09' E 009°22'3 5.7
2018-Feb-19 19:30N 54°06' E 009°20'4 8.4
2018-Feb-19 19:01N 54°02' E 009°18'4 7.7
2018-Feb-19 18:31N 53°59' E 009°16'4 8.6
2018-Feb-19 18:01N 53°55' E 009°12'2 4.7
2018-Feb-19 17:28N 53°54' E 009°09'0 0.2
2018-Feb-19 17:00N 53°54' E 009°09'2 4.7
2018-Feb-19 16:30N 53°53' E 009°05'713.8
2018-Feb-19 16:00N 53°50' E 008°54'815.3
2018-Feb-19 15:30N 53°53' E 008°42'816.3
2018-Feb-19 15:00N 53°58' E 008°31'817.0
2018-Feb-19 14:30N 53°59' E 008°16'816.4
2018-Feb-19 14:00N 53°59' E 008°03'13318.6
2018-Feb-19 06:51N 53°12' E 004°33'719.9
2018-Feb-19 06:30N 53°06' E 004°27'1019.9
2018-Feb-19 06:00N 52°57' E 004°19'1019.9
2018-Feb-19 05:29N 52°48' E 004°11'8718.4
2018-Feb-19 00:44N 51°50' E 002°25'816.7
2018-Feb-19 00:15N 51°44' E 002°15'416.2
2018-Feb-19 00:00N 51°42' E 002°10'816.0
2018-Feb-18 23:30N 51°37' E 002°01'816.1
2018-Feb-18 23:00N 51°33' E 001°49'815.8
2018-Feb-18 22:30N 51°30' E 001°37'815.3
2018-Feb-18 22:00N 51°27' E 001°26'714.8
2018-Feb-18 21:30N 51°29' E 001°14'714.8
2018-Feb-18 21:00N 51°30' E 001°02'917.3
2018-Feb-18 20:30N 51°28' E 000°48'5 9.5
2018-Feb-18 19:58N 51°26' E 000°41'0 0.0
2018-Feb-18 19:28N 51°26' E 000°41'0 0.0
2018-Feb-18 12:47N 51°26' E 000°41'0 0.0
2018-Feb-18 12:29N 51°26' E 000°41'0 0.0
2018-Feb-18 11:59N 51°26' E 000°41'0 0.0
2018-Feb-18 11:29N 51°26' E 000°41'0 0.4
2018-Feb-18 11:01N 51°26' E 000°41'510.5
2018-Feb-18 10:30N 51°28' E 000°49'918.4
2018-Feb-18 10:00N 51°30' E 001°04'816.5
2018-Feb-18 09:31N 51°29' E 001°17'815.7
2018-Feb-18 09:00N 51°26' E 001°28'2 4.2
2018-Feb-18 08:30N 51°26' E 001°32'815.2
2018-Feb-18 08:00N 51°33' E 001°39'816.8
2018-Feb-18 07:30N 51°40' E 001°45'917.2
2018-Feb-18 07:00N 51°49' E 001°44'816.4
2018-Feb-18 06:30N 51°57' E 001°45'815.7
2018-Feb-18 06:00N 52°05' E 001°47'2515.4
2018-Feb-18 04:23N 52°29' E 001°54'614.5
2018-Feb-18 04:00N 52°35' E 001°55'713.9
2018-Feb-18 03:31N 52°42' E 001°55'713.5
2018-Feb-18 03:00N 52°47' E 001°49'714.7
2018-Feb-18 02:30N 52°52' E 001°40'714.5
2018-Feb-18 02:00N 52°57' E 001°32'815.2
2018-Feb-18 01:30N 53°04' E 001°25'815.6
2018-Feb-18 01:00N 53°11' E 001°19'815.6
2018-Feb-18 00:30N 53°18' E 001°13'815.6
2018-Feb-18 00:00N 53°24' E 001°07'109 4.9
2018-Feb-17 01:47N 54°42' W 001°04'2 6.2
2018-Feb-17 01:30N 54°43' W 001°01'3 5.6
2018-Feb-17 00:59N 54°44' W 000°56'3 5.5
2018-Feb-17 00:29N 54°45' W 000°52'41111.1
2018-Feb-15 11:30N 57°44' E 010°13'713.5
2018-Feb-15 11:00N 57°46' E 010°25'713.8
2018-Feb-15 10:31N 57°48' E 010°38'815.5
2018-Feb-15 10:01N 57°45' E 010°52'918.1
2018-Feb-15 09:30N 57°39' E 011°05'918.6
2018-Feb-15 09:01N 57°33' E 011°17'917.8
2018-Feb-15 08:31N 57°26' E 011°28'918.7
2018-Feb-15 08:00N 57°17' E 011°34'917.8
2018-Feb-15 07:30N 57°09' E 011°40'917.9
2018-Feb-15 07:01N 57°01' E 011°45'4616.6
2018-Feb-15 04:16N 56°20' E 012°22'416.6
2018-Feb-15 04:01N 56°16' E 012°25'917.6
2018-Feb-15 03:31N 56°08' E 012°32'816.6
2018-Feb-15 03:01N 56°01' E 012°40'816.9
2018-Feb-15 02:31N 55°53' E 012°45'816.4
2018-Feb-15 02:01N 55°45' E 012°42'815.3
2018-Feb-15 01:31N 55°37' E 012°42'611.9
2018-Feb-15 01:00N 55°31' E 012°43'815.9
2018-Feb-15 00:30N 55°24' E 012°40'713.6
2018-Feb-15 00:00N 55°17' E 012°45'816.3
2018-Feb-14 23:30N 55°15' E 012°59'917.4
2018-Feb-14 23:00N 55°15' E 013°14'1117.3
2018-Feb-14 22:21N 55°14' E 013°34'817.3
2018-Feb-14 21:53N 55°14' E 013°48'817.5
2018-Feb-14 21:24N 55°14' E 014°03'717.2
2018-Feb-14 20:58N 55°14' E 014°16'817.1
2018-Feb-14 20:30N 55°19' E 014°26'917.3
2018-Feb-14 20:00N 55°26' E 014°36'917.4
2018-Feb-14 19:30N 55°27' E 014°51'917.8
2018-Feb-14 19:00N 55°28' E 015°07'917.7
2018-Feb-14 18:30N 55°28' E 015°23'917.6
2018-Feb-14 18:00N 55°29' E 015°38'917.6
2018-Feb-14 17:30N 55°29' E 015°54'917.7
2018-Feb-14 16:59N 55°29' E 016°10'325 9.4
2018-Feb-13 06:23N 59°33' E 022°50'615.5
2018-Feb-13 06:00N 59°35' E 023°01'815.5
2018-Feb-13 05:30N 59°37' E 023°16'816.4
2018-Feb-13 05:00N 59°39' E 023°31'816.4
2018-Feb-13 04:30N 59°42' E 023°47'816.5
2018-Feb-13 04:00N 59°44' E 024°03'1019.2
2018-Feb-13 03:30N 59°46' E 024°21'815.6
2018-Feb-13 03:00N 59°48' E 024°36'917.2
2018-Feb-13 02:30N 59°50' E 024°53'816.7
2018-Feb-13 02:00N 59°51' E 025°09'816.7
2018-Feb-13 01:30N 59°53' E 025°26'817.0
2018-Feb-13 01:00N 59°54' E 025°42'1718.8
2018-Feb-13 00:07N 59°59' E 026°14'215.0
2018-Feb-12 23:58N 59°59' E 026°19'814.9
2018-Feb-12 23:27N 60°01' E 026°34'817.1
2018-Feb-12 22:58N 60°00' E 026°50'817.3
2018-Feb-12 22:29N 60°00' E 027°07'715.0
2018-Feb-12 22:00N 60°04' E 027°19'815.2
2018-Feb-12 21:30N 60°08' E 027°32'714.7
2018-Feb-12 21:01N 60°12' E 027°45'714.3
2018-Feb-12 20:30N 60°10' E 027°59'815.2
2018-Feb-12 20:00N 60°08' E 028°14'815.1
2018-Feb-12 19:30N 60°04' E 028°27'815.6
2018-Feb-12 19:00N 60°03' E 028°42'816.0
2018-Feb-12 18:30N 60°03' E 028°58'1016.1
2018-Feb-12 17:54N 60°02' E 029°18'914.9
2018-Feb-12 17:18N 60°01' E 029°35'411.7
2018-Feb-12 17:00N 59°59' E 029°42'1 1.6
2018-Feb-12 16:23N 60°00' E 029°43'0 0.0
2018-Feb-12 05:50N 60°00' E 029°43'0 0.1
2018-Feb-12 05:28N 60°00' E 029°43'0 0.4
2018-Feb-12 04:59N 60°00' E 029°43'2 3.4
2018-Feb-12 04:29N 59°60' E 029°39'911.5
2018-Feb-12 03:44N 60°02' E 029°22'2 9.5
2018-Feb-12 03:30N 60°02' E 029°18'5 9.4
2018-Feb-12 03:00N 60°02' E 029°09'5 9.5
2018-Feb-12 02:28N 60°02' E 028°58'4 9.6
2018-Feb-12 02:00N 60°02' E 028°49'5 9.6
2018-Feb-12 01:30N 60°02' E 028°40'510.5
2018-Feb-12 01:00N 60°03' E 028°29'510.4
2018-Feb-12 00:30N 60°05' E 028°20'510.1
2018-Feb-12 00:01N 60°08' E 028°11'5 9.8
2018-Feb-11 23:30N 60°09' E 028°02'5 9.6
2018-Feb-11 23:00N 60°10' E 027°52'5 9.7
2018-Feb-11 22:30N 60°10' E 027°43'611.6
2018-Feb-11 22:00N 60°07' E 027°33'612.0
2018-Feb-11 21:30N 60°04' E 027°22'612.1
2018-Feb-11 21:00N 60°00' E 027°12'611.7
2018-Feb-11 20:30N 59°58' E 027°02'611.9
2018-Feb-11 20:00N 59°59' E 026°50'611.9
2018-Feb-11 19:30N 59°59' E 026°38'612.3
2018-Feb-11 19:00N 59°58' E 026°26'713.4
2018-Feb-11 18:30N 59°56' E 026°13'1213.6
2018-Feb-11 17:36N 59°53' E 025°50'114.2
2018-Feb-11 17:30N 59°52' E 025°47'713.5
2018-Feb-11 17:00N 59°51' E 025°34'713.2
2018-Feb-11 16:30N 59°49' E 025°21'713.5
2018-Feb-11 16:00N 59°48' E 025°08'713.7
2018-Feb-11 15:31N 59°47' E 024°55'714.2
2018-Feb-11 15:01N 59°45' E 024°41'713.8
2018-Feb-11 14:30N 59°44' E 024°27'714.0
2018-Feb-11 14:00N 59°42' E 024°14'714.2
2018-Feb-11 13:30N 59°39' E 024°01'713.9
2018-Feb-11 13:00N 59°37' E 023°48'714.2
2018-Feb-11 12:30N 59°35' E 023°35'714.3
2018-Feb-11 12:00N 59°33' E 023°21'814.3
2018-Feb-11 11:29N 59°30' E 023°07'  

Dump ship's entire track history